Southwestern Research Station, Arizona Weather observations

Data are for 10 minute period ending at time listed.
 Day   Time   Solar   Ave.   Ave.  Ave.  Vector  Max.   Baro.   Total    
  of    of     Rad.   Air    Rel.  Wind   Wind   Wind  Press.  Precip.   
Year   Day            Temp.  Hum.  Speed  Dir.   Gust                    
2026   (PST)  Kw/m2    F      %     mph   deg.    mph    mb.     in.     
-------------------------------------------------------------------------
 125   12:40   1.01   66.2    39    2.7   265    11.2   831.4    0.00 
 125   12:50   0.85   66.6    38    2.5   209    13.2   831.2    0.00 
 125   13:00   0.63   66.2    39    4.3   251    13.8   831.0    0.00 
 125   13:10   0.70   65.6    37    4.4   178    14.5   830.9    0.00 
 125   13:20   0.91   66.0    37    5.2   208    17.7   831.0    0.00 
 125   13:30   0.68   65.9    35    3.2   274    10.0   830.9    0.00 
 125   13:40   0.63   65.9    37    4.4   225    13.8   830.8    0.00 
 125   13:50   0.48   66.0    38    2.9   283    10.6   830.7    0.00 
 125   14:00   0.48   64.7    37    4.1   242    12.3   830.6    0.00 
 125   14:10   0.54   66.4    36    4.4   302    15.1   830.4    0.00 
 125   14:20   0.60   66.3    34    4.6   270    13.2   830.2    0.00 
 125   14:30   0.62   67.4    33    5.0   241    12.1   830.2    0.00 
 125   14:40   0.46   66.3    33    4.5   197    13.7   830.1    0.00 
 125   14:50   0.36   65.8    32    3.6   226    11.3   829.9    0.00 
 125   15:00   0.46   65.6    32    2.8   194    10.7   829.7    0.00 
 125   15:10   0.46   66.8    31    3.4   204    13.1   829.7    0.00 
 125   15:20   0.25   66.1    30    4.2   185    11.2   829.6    0.00 
 125   15:30   0.26   66.2    30    3.4   264    16.7   829.6    0.00 
 125   15:40   0.18   66.0    29    2.9   282    11.0   829.3    0.00 
 125   15:50   0.26   65.7    29    3.6   298    12.9   829.4    0.00 
 125   16:00   0.28   66.5    28    2.2   288    12.2   829.1    0.00 
 125   16:10   0.38   66.3    28    3.1   183    13.2   829.1    0.00 
 125   16:20   0.33   67.0    27    4.1   160    12.5   829.0    0.00 
 125   16:30   0.32   67.0    28    3.9   201    17.2   829.0    0.00 
 125   16:40   0.26   66.5    29    3.3   190    10.2   829.0    0.00 
 125   16:50   0.25   66.6    29    4.9   173    14.8   829.0    0.00 
 125   17:00   0.06   65.2    30    3.6   175    16.8   829.1    0.00 
 125   17:10   0.06   64.7    32    2.8   278    10.2   829.2    0.00 
 125   17:20   0.05   64.3    31    2.4   304     8.6   829.2    0.00 
 125   17:30   0.05   63.9    33    1.8   255     7.3   829.2    0.00 
 125   17:40   0.05   63.6    33    3.8   216    12.3   829.2    0.00 
 125   17:50   0.03   63.5    33    4.0   203    17.3   829.3    0.00 
 125   18:00   0.03   63.3    33    2.6   207     8.0   829.3    0.00 
 125   18:10   0.02   62.8    35    2.3   172    10.6   829.4    0.00 
 125   18:20   0.01   62.5    34    3.3   174     7.6   829.4    0.00 
 125   18:30   0.01   62.5    34    3.6   186    11.9   829.6    0.00 
 125   18:40   0.01   62.4    34    3.5   182    12.9   829.5    0.00 
 125   18:50   0.01   62.3    35    3.5   187    10.4   829.7    0.00 
 125   19:00   0.01   62.2    34    4.3   180    12.0   829.7    0.00 
 125   19:10   0.00   62.1    34    3.1   188    10.0   829.8    0.00 
 125   19:20   0.00   61.6    35    2.3   177    14.4   830.0    0.00 
 125   19:30   0.00   61.5    36    2.9   193     8.7   830.1    0.00 
 125   19:40   0.00   61.4    35    2.7   190     6.8   830.3    0.00 
 125   19:50   0.00   61.0    37    1.4   237     7.2   830.3    0.00 
 125   20:00   0.00   60.2    40    0.4    97     3.0   830.5    0.00 
 125   20:10   0.00   59.2    41    1.3   308     5.6   830.7    0.00 
 125   20:20   0.00   59.7    35    2.3   298     9.1   830.8    0.00 
 125   20:30   0.00   59.4    34    1.8   303    10.4   831.1    0.00 
 125   20:40   0.00   58.9    33    3.0   305     9.5   831.2    0.00 
 125   20:50   0.00   58.6    34    2.3   316     6.6   831.4    0.00 
 125   21:00   0.00   57.6    37    1.6   289     5.6   831.6    0.00 
 125   21:10   0.00   56.5    39    1.9   308     7.7   831.8    0.00 
 125   21:20   0.00   55.9    40    2.0   309     7.6   831.8    0.00 
 125   21:30   0.00   55.5    40    2.0   313     5.8   831.9    0.00 
 125   21:40   0.00   54.9    42    2.5   316     6.4   831.9    0.00 
 125   21:50   0.00   54.2    43    1.7   318     5.0   831.9    0.00 
 125   22:00   0.00   53.5    45    1.0   316     4.3   831.9    0.00 
 125   22:10   0.00   52.3    49    0.3   287     2.5   831.9    0.00 
 125   22:20   0.00   50.7    52    0.3   313     1.5   831.9    0.00 
 125   22:30   0.00   49.3    57    0.0   316     0.9   831.8    0.00 
 125   22:40   0.00   47.9    61    0.0   294     0.7   831.9    0.00 
 125   22:50   0.00   47.0    64    0.0     0     0.0   831.9    0.00 
 125   23:00   0.00   46.5    67    0.0   317     0.9   832.0    0.00 
 125   23:10   0.00   46.1    69    0.0   335     1.2   832.0    0.00 
 125   23:20   0.00   45.9    70    0.1   341     1.8   831.9    0.00 
 125   23:30   0.00   46.0    70    0.2   331     1.9   831.9    0.00 
 125   23:40   0.00   45.8    71    0.0   259     0.8   832.1    0.00 
 125   23:50   0.00   45.9    70    0.1   341     1.9   832.2    0.00 
 126    0:00   0.00   46.3    70    0.2   237     1.5   832.2    0.00 
 126    0:10   0.00   46.4    70    0.2   297     2.2   832.2    0.00 
 126    0:20   0.00   46.7    67    0.7   316     3.0   832.2    0.00 
 126    0:30   0.00   48.0    62    1.0   334     3.8   832.1    0.00 
 126    0:40   0.00   47.8    62    1.3   337     7.7   832.0    0.00 
 126    0:50   0.00   48.4    60    0.4   329     3.4   832.0    0.00 
 126    1:00   0.00   47.7    62    0.8   340     4.5   832.0    0.00 
 126    1:10   0.00   48.1    60    0.5   330     2.6   832.0    0.00 
 126    1:20   0.00   48.2    60    0.7   340     2.7   832.0    0.00 
 126    1:30   0.00   47.9    61    0.1   330     1.5   831.9    0.00 
 126    1:40   0.00   46.8    64    0.3   355     2.7   831.9    0.00 
 126    1:50   0.00   47.1    65    0.4   339     4.8   831.9    0.00 
 126    2:00   0.00   45.5    71    0.3    34     2.0   831.9    0.00 
 126    2:10   0.00   44.2    73    0.2    45     1.8   831.9    0.00 
 126    2:20   0.00   43.9    73    0.3    46     1.6   831.9    0.00 
 126    2:30   0.00   43.5    75    0.3   236     1.8   831.9    0.00 
 126    2:40   0.00   42.5    77    0.3   329     2.3   831.9    0.00 
 126    2:50   0.00   41.7    78    0.2   207     1.2   831.9    0.00 
 126    3:00   0.00   40.9    80    0.4    32     2.8   831.9    0.00 
 126    3:10   0.00   41.6    80    0.1   346     1.5   832.0    0.00 
 126    3:20   0.00   41.1    81    0.1    47     1.7   832.0    0.00 
 126    3:30   0.00   41.0    81    0.1   190     1.5   832.2    0.00 
 126    3:40   0.00   40.3    82    0.3   301     1.6   832.2    0.00 
 126    3:50   0.00   39.7    83    0.1   263     1.5   832.2    0.00 
 126    4:00   0.00   39.4    84    0.1   263     2.2   832.2    0.00 
 126    4:10   0.00   39.2    85    0.4   249     2.8   832.2    0.00 
 126    4:20   0.00   38.7    85    0.0   226     0.5   832.2    0.00 
 126    4:30   0.00   38.2    86    0.2   281     1.5   832.3    0.00 
 126    4:40   0.00   38.2    88    0.1    13     1.4   832.4    0.00 
 126    4:50   0.00   37.9    87    0.4   256     2.3   832.5    0.00 
 126    5:00   0.00   37.3    87    0.2   251     2.3   832.6    0.00 
 126    5:10   0.00   37.2    89    0.2   275     1.5   832.6    0.00 
 126    5:20   0.00   37.3    89    0.1   303     2.6   832.7    0.00 
 126    5:30   0.01   37.0    89    0.0     0     0.0   832.9    0.00 
 126    5:40   0.01   36.5    89    0.1   268     1.3   833.1    0.00 
 126    5:50   0.01   36.3    90    0.0   273     1.0   833.2    0.00 
 126    6:00   0.01   36.3    91    0.1   270     1.2   833.3    0.00 
 126    6:10   0.02   36.6    91    0.1   342     2.0   833.4    0.00 
 126    6:20   0.03   36.7    91    0.0    32     0.6   833.5    0.00 
 126    6:30   0.08   37.7    90    0.5     6     3.6   833.6    0.00 
 126    6:40   0.19   39.8    82    0.3    11     2.0   833.6    0.00 
 126    6:50   0.22   41.4    78    1.2    19     4.2   833.6    0.00 
 126    7:00   0.26   43.2    74    1.0    20     3.4   833.6    0.00 
 126    7:10   0.29   45.5    67    1.1    16     2.6   833.5    0.00 
 126    7:20   0.33   48.7    62    1.3    69     3.2   833.6    0.00 
 126    7:30   0.37   50.8    55    0.8   101     3.1   833.5    0.00 
 126    7:40   0.40   52.5    52    1.7   114     5.8   833.5    0.00 
 126    7:50   0.43   54.3    49    1.6    94     4.6   833.5    0.00 
 126    8:00   0.47   55.1    47    2.7   100     6.9   833.7    0.00 
 126    8:10   0.50   55.4    47    2.5   110     7.2   834.2    0.00 
 126    8:20   0.53   56.2    47    3.0   103     7.5   834.2    0.00 
 126    8:30   0.56   56.5    46    3.3   116     9.0   833.7    0.00 
 126    8:40   0.59   56.9    45    2.7   108     9.3   833.9    0.00 
 126    8:50   0.62   57.3    44    3.2    98     8.3   834.3    0.00 
 126    9:00   0.65   58.0    43    4.0   108     8.5   834.4    0.00 
 126    9:10   0.68   58.4    43    3.6   114     9.1   834.3    0.00 
 126    9:20   0.70   58.6    42    3.5   121    10.2   834.1    0.00 
 126    9:30   0.73   60.2    40    3.4    95    10.2   834.0    0.00 
 126    9:40   0.76   60.3    40    3.5   120     8.1   834.2    0.00 
 126    9:50   0.72   60.2    41    3.4   105     9.2   834.2    0.00 
 126   10:00   0.80   60.4    40    3.4   111     9.1   834.3    0.00 
 126   10:10   0.82   60.6    40    4.2   110    11.8   834.3    0.00 
 126   10:20   0.84   61.4    39    4.2   114    11.8   834.3    0.00 
 126   10:30   0.86   61.9    39    3.8   118    11.3   834.3    0.00 
 126   10:40   0.87   62.1    38    4.3   115     9.1   834.3    0.00 
 126   10:50   0.89   63.2    37    4.5    84    10.2   834.3    0.00 
 126   11:00   0.90   62.1    38    5.6   111    12.8   834.3    0.00 
 126   11:10   0.91   63.6    36    3.8   111     8.5   834.3    0.00 
 126   11:20   0.92   63.6    36    4.1   102    12.1   834.3    0.00 
 126   11:30   0.93   64.9    35    3.7    86     9.6   834.2    0.00 
 126   11:40   0.94   64.7    35    5.1   104    13.2   834.1    0.00 
 126   11:50   0.94   64.5    35    4.3   106    12.1   834.1    0.00 
 126   12:00   0.96   66.1    33    3.9    86    12.9   834.0    0.00 
 126   12:10   0.95   65.7    33    3.6   103    10.4   834.0    0.00 
 126   12:20   0.95   66.1    33    4.0    94    11.9   833.9    0.00 
 126   12:30   0.96   65.9    33    5.7   102    14.2   833.9    0.00 

Return to Southwestern Research Station graphs page.


Western Regional Climate Center,wrcc@dri.edu